Nearby METAR Reports

 

KIAD - Wash Dc/Dulles, Virginia, USA
Distance from station: ESE 7mi, 11km
Updated: Tue, 17-Sep-2019 6:52pm EDT
Few Clouds
Few Clouds
 Wind from ENE
Wind: ENE 6 mph , 9 km/h
Temperature: 73°F , 23°C
Dew Point: 57°F , 14°C
Humidity: 57%
Barometer: 30.08 inHg , 1018.6 hPa
Clouds: Few Clouds
Visibility: 10 miles , 16 km
Cloud details: Few Clouds 4700 ft
Few Clouds 7500 ft
2019/09/17 22:52 KIAD 172252Z 06005KT 10SM FEW047 FEW075 23/14 A3008 RMK AO2 SLP185 T02330139
KJYO - Leesburg/Godfrey, Virginia, USA
Distance from station: N 7mi, 12km
Updated: Tue, 17-Sep-2019 7:35pm EDT
Clear
Clear
 Wind from ENE
Wind: ENE 6 mph , 9 km/h
Temperature: 73°F , 23°C
Dew Point: 61°F , 16°C
Humidity: 65%
Barometer: 30.11 inHg , 1019.6 hPa
Clouds: Clear
Visibility: 10 miles , 16 km
2019/09/17 23:35 KJYO 172335Z AUTO 06005KT 10SM CLR 23/16 A3011 RMK AO2
 
KHEF - Manassas Muni, Virginia, USA
Distance from station: S 17mi, 28km
Updated: Tue, 17-Sep-2019 6:56pm EDT
Partly cloudy
Partly cloudy
 Wind from calm
Wind: Calm
Temperature: 73°F , 23°C
Dew Point: 63°F , 17°C
Humidity: 69%
Barometer: 30.08 inHg , 1018.6 hPa
Clouds: Partly cloudy
Visibility: 10 miles , 16 km
Cloud details: Partly cloudy 6500 ft
2019/09/17 22:56 KHEF 172256Z 00000KT 10SM SCT065 23/17 A3008 RMK AO2 SLP191 T02330167
KGAI - Gaithersburg, Maryland, USA
Distance from station: NE 26mi, 41km
Updated: Tue, 17-Sep-2019 6:56pm EDT
Clear
Clear
 Wind from calm
Wind: Calm
Temperature: 73°F , 23°C
Dew Point: 57°F , 14°C
Humidity: 57%
Barometer: 30.11 inHg , 1019.6 hPa
Clouds: Clear
Visibility: 10 miles , 16 km
2019/09/17 22:56 KGAI 172256Z AUTO 00000KT 10SM CLR 23/14 A3011 RMK AO2 SLP207 T02280144
 
KDAA - Fort Belvoir/Dav, Virginia, USA
Distance from station: SE 27mi, 44km
Updated: Tue, 17-Sep-2019 6:56pm EDT
Partly cloudy
Partly cloudy
 Wind from ESE
Wind: ESE 3 mph , 6 km/h
Temperature: 75°F , 24°C
Dew Point: 59°F , 15°C
Humidity: 57%
Barometer: 30.08 inHg , 1018.6 hPa
Clouds: Partly cloudy
Visibility: 10 miles , 16 km
Cloud details: Partly cloudy 6500 ft
2019/09/17 22:56 KDAA 172256Z AUTO 11003KT 10SM SCT065 24/15 A3008 RMK AO2 SLP188 T02420151 $
KHWY - Warrenton, Virginia, USA
Distance from station: SSW 27mi, 44km
Updated: Tue, 17-Sep-2019 7:35pm EDT
Clear
Clear
 Wind from calm
Wind: Calm
Temperature: 66°F , 19°C
Dew Point: 59°F , 15°C
Humidity: 78%
Barometer: 30.09 inHg , 1019 hPa
Clouds: Clear
Visibility: 10 miles , 16 km
2019/09/17 23:35 KHWY 172335Z AUTO 00000KT 10SM CLR 19/15 A3009 RMK AO2 T01860153
 
KDCA - Washington/Natl, Washington D.c., USA
Distance from station: ESE 30mi, 48km
Updated: Tue, 17-Sep-2019 6:52pm EDT
Mostly cloudy
Mostly cloudy
 Wind from ESE
Wind: ESE 9 mph , 15 km/h
Temperature: 77°F , 25°C
Dew Point: 57°F , 14°C
Humidity: 51%
Barometer: 30.08 inHg , 1018.6 hPa
Clouds: Mostly cloudy
Visibility: 10 miles , 16 km
Cloud details: Mostly cloudy 6500 ft
2019/09/17 22:52 KDCA 172252Z 11008KT 10SM BKN065 25/14 A3008 RMK AO2 SLP187 T02500144
KFDK - Frederick, Maryland, USA
Distance from station: NNE 33mi, 53km
Updated: Tue, 17-Sep-2019 6:47pm EDT
Few Clouds
Few Clouds
 Wind from ENE
Wind: ENE 6 mph , 9 km/h
Temperature: 79°F , 26°C
Dew Point: 54°F , 12°C
Humidity: 42%
Barometer: 30.10 inHg , 1019.3 hPa
Clouds: Few Clouds
Visibility: 10 miles , 16 km
Cloud details: Few Clouds 10000 ft
2019/09/17 22:47 KFDK 172247Z 06005KT 10SM FEW100 26/12 A3010
 
KOKV - Winchester Rgnl, Virginia, USA
Distance from station: WNW 33mi, 54km
Updated: Tue, 17-Sep-2019 7:35pm EDT
Mostly cloudy
Mostly cloudy
 Wind from calm
Wind: Calm
Temperature: 68°F , 20°C
Dew Point: 59°F , 15°C
Humidity: 73%
Barometer: 30.09 inHg , 1019 hPa
Clouds: Mostly cloudy
Visibility: 10 miles , 16 km
Cloud details: Partly cloudy 5000 ft
Mostly cloudy 7500 ft
2019/09/17 23:35 KOKV 172335Z AUTO 00000KT 10SM SCT050 BKN075 20/15 A3009 RMK AO2
KCJR - Culpeper, Virginia, USA
Distance from station: SSW 34mi, 54km
Updated: Tue, 17-Sep-2019 7:35pm EDT
Mostly cloudy
Mostly cloudy
 Wind from calm
Wind: Calm
Temperature: 68°F , 20°C
Dew Point: 64°F , 18°C
Humidity: 88%
Barometer: 30.10 inHg , 1019.3 hPa
Clouds: Mostly cloudy
Visibility: 10 miles , 16 km
Cloud details: Mostly cloudy 8500 ft
2019/09/17 23:35 KCJR 172335Z AUTO 00000KT 10SM BKN085 20/18 A3010 RMK AO2 T02000176
 
KCGS - College Park, Maryland, USA
Distance from station: E 35mi, 56km
Updated: Tue, 17-Sep-2019 7:42pm EDT
Clear
Clear
 Wind from calm
Wind: Calm
Temperature: 70°F , 21°C
Dew Point: 55°F , 13°C
Humidity: 60%
Barometer: 30.09 inHg , 1019 hPa
Clouds: Clear
Visibility: 10 miles , 16 km
2019/09/17 23:42 KCGS 172342Z AUTO 00000KT 10SM CLR 21/13 A3009 RMK AO1 T02080131
KNYG - Quantico Mcaf, Virginia, USA
Distance from station: SSE 35mi, 57km
Updated: Tue, 17-Sep-2019 6:56pm EDT
Clear
Clear
 Wind from SE
Wind: SE 8 mph , 13 km/h
Temperature: 77°F , 25°C
Dew Point: 63°F , 17°C
Humidity: 61%
Barometer: 30.08 inHg , 1018.6 hPa
Clouds: Clear
Visibility: 10 miles , 16 km
2019/09/17 22:56 KNYG 172256Z AUTO 13007KT 10SM CLR 25/17 A3008 RMK AO2 SLP188 T02500167
 
KFRR - Fort Royal, Virginia, USA
Distance from station: W 37mi, 59km
Updated: Tue, 17-Sep-2019 7:35pm EDT
Clear
Clear
 Wind from calm
Wind: Calm
Temperature: 70°F , 21°C
Dew Point: 63°F , 17°C
Humidity: 78%
Barometer: 30.09 inHg , 1019 hPa
Clouds: Clear
Visibility: 10 miles , 16 km
2019/09/17 23:35 KFRR 172335Z AUTO 00000KT 10SM CLR 21/17 A3009 RMK AO1
KMRB - Martinsburg, West Virginia, USA
Distance from station: NW 38mi, 61km
Updated: Tue, 17-Sep-2019 6:53pm EDT
Mostly cloudy
Mostly cloudy
 Wind from ESE
Wind: ESE 3 mph , 6 km/h
Temperature: 75°F , 24°C
Dew Point: 57°F , 14°C
Humidity: 54%
Barometer: 30.09 inHg , 1019 hPa
Clouds: Mostly cloudy
Visibility: 10 miles , 16 km
Cloud details: Mostly cloudy 6000 ft
2019/09/17 22:53 KMRB 172253Z 11003KT 10SM BKN060 24/14 A3009 RMK AO2 SLP184 T02390144
 
KADW - Andrews Afb, Maryland, USA
Distance from station: ESE 39mi, 63km
Updated: Tue, 17-Sep-2019 6:56pm EDT
Clear
Clear
 Wind from E
Wind: E 5 mph , 7 km/h
Temperature: 73°F , 23°C
Dew Point: 57°F , 14°C
Humidity: 57%
Barometer: 30.08 inHg , 1018.6 hPa
Clouds: Clear
Visibility: 10 miles , 16 km
2019/09/17 22:56 KADW 172256Z AUTO 09004KT 10SM CLR 23/14 A3008 RMK AO2 SLP191 T02260136 $
KRMN - Stafford Regnl, Virginia, USA
Distance from station: S 39mi, 63km
Updated: Tue, 17-Sep-2019 7:35pm EDT
Mostly cloudy
Mostly cloudy
 Wind from calm
Wind: Calm
Temperature: 68°F , 20°C
Dew Point: 68°F , 20°C
Humidity: 100%
Barometer: 30.13 inHg , 1020.3 hPa
Clouds: Mostly cloudy
Visibility: 10 miles , 16 km
Cloud details: Mostly cloudy 9000 ft
2019/09/17 23:35 KRMN 172335Z AUTO 00000KT 10SM BKN090 20/20 A3013 RMK AO2 T02040204
 
KFME - Fort Meade, Maryland, USA
Distance from station: ENE 44mi, 70km
Updated: Tue, 17-Sep-2019 7:42pm EDT
Clear
Clear
 Wind from calm
Wind: Calm
Temperature: 64°F , 18°C
Dew Point: 61°F , 16°C
Humidity: 88%
Barometer: 30.11 inHg , 1019.6 hPa
Clouds: Clear
Visibility: 10 miles , 16 km
2019/09/17 23:42 KFME 172342Z AUTO 00000KT 10SM CLR 18/16 A3011 RMK AO1
KRSP - Nsf Thurmont, Maryland, USA
Distance from station: N 48mi, 77km
Updated: Sat, 18-May-2019 1:54pm EDT
NOT Current

 
2019/05/18 17:54 KRSP 181754Z AUTO VRB04KTLS21/16 A3004 RMK AO2 SLP168 T02110161 10228 20172 $
 
KEZF - Fredericksb/Shan, Virginia, USA
Distance from station: S 48mi, 78km
Updated: Tue, 17-Sep-2019 7:35pm EDT
Mostly cloudy
Mostly cloudy
 Wind from calm
Wind: Calm
Temperature: 73°F , 23°C
Dew Point: 66°F , 19°C
Humidity: 78%
Barometer: 30.08 inHg , 1018.6 hPa
Clouds: Mostly cloudy
Visibility: 10 miles , 16 km
Cloud details: Mostly cloudy 9000 ft
2019/09/17 23:35 KEZF 172335Z AUTO 00000KT 10SM BKN090 23/19 A3008 RMK AO2 T02280188
KBWI - Balto/Wash Intl, Maryland, USA
Distance from station: ENE 49mi, 80km
Updated: Tue, 17-Sep-2019 6:54pm EDT
Few Clouds
Few Clouds
 Wind from E
Wind: E 7 mph , 11 km/h
Temperature: 75°F , 24°C
Dew Point: 55°F , 13°C
Humidity: 50%
Barometer: 30.08 inHg , 1018.6 hPa
Clouds: Few Clouds
Visibility: 10 miles , 16 km
Cloud details: Few Clouds 5000 ft
Few Clouds 20000 ft
2019/09/17 22:54 KBWI 172254Z 08006KT 10SM FEW050 FEW200 24/13 A3008 RMK AO2 SLP185 T02440133